sensor_id;sensor_type;location;lat;lon;timestamp;P1;durP1;ratioP1;P2;durP2;ratioP2
37527;SDS011;23372;52.050;4.810;2023-07-29T00:00:51;5.07;;;1.70;;
37527;SDS011;23372;52.050;4.810;2023-07-29T00:03:17;7.53;;;1.75;;
37527;SDS011;23372;52.050;4.810;2023-07-29T00:05:42;6.40;;;1.90;;
37527;SDS011;23372;52.050;4.810;2023-07-29T00:08:08;5.75;;;1.58;;
37527;SDS011;23372;52.050;4.810;2023-07-29T00:10:37;5.97;;;1.88;;
37527;SDS011;23372;52.050;4.810;2023-07-29T00:13:03;5.40;;;2.17;;
37527;SDS011;23372;52.050;4.810;2023-07-29T00:15:29;6.45;;;2.42;;
37527;SDS011;23372;52.050;4.810;2023-07-29T00:17:55;3.95;;;1.65;;
37527;SDS011;23372;52.050;4.810;2023-07-29T00:20:20;10.30;;;2.63;;
37527;SDS011;23372;52.050;4.810;2023-07-29T00:22:46;6.43;;;1.85;;
37527;SDS011;23372;52.050;4.810;2023-07-29T00:25:14;5.00;;;1.98;;
37527;SDS011;23372;52.050;4.810;2023-07-29T00:27:40;5.35;;;2.08;;
37527;SDS011;23372;52.050;4.810;2023-07-29T00:30:06;4.57;;;2.22;;
37527;SDS011;23372;52.050;4.810;2023-07-29T00:32:32;4.63;;;2.10;;
37527;SDS011;23372;52.050;4.810;2023-07-29T00:34:58;3.70;;;2.38;;
37527;SDS011;23372;52.050;4.810;2023-07-29T00:37:25;3.90;;;1.80;;
37527;SDS011;23372;52.050;4.810;2023-07-29T00:39:52;4.03;;;2.25;;
37527;SDS011;23372;52.050;4.810;2023-07-29T00:42:17;5.72;;;3.17;;
37527;SDS011;23372;52.050;4.810;2023-07-29T00:44:43;7.00;;;2.65;;
37527;SDS011;23372;52.050;4.810;2023-07-29T00:47:08;8.35;;;2.47;;
37527;SDS011;23372;52.050;4.810;2023-07-29T00:49:36;5.32;;;2.63;;
37527;SDS011;23372;52.050;4.810;2023-07-29T00:52:02;7.38;;;2.55;;
37527;SDS011;23372;52.050;4.810;2023-07-29T00:54:27;8.90;;;2.78;;
37527;SDS011;23372;52.050;4.810;2023-07-29T00:56:53;4.65;;;2.30;;
37527;SDS011;23372;52.050;4.810;2023-07-29T00:59:19;8.07;;;2.85;;
37527;SDS011;23372;52.050;4.810;2023-07-29T01:01:44;8.07;;;3.28;;
37527;SDS011;23372;52.050;4.810;2023-07-29T01:04:10;6.20;;;2.88;;
37527;SDS011;23372;52.050;4.810;2023-07-29T01:09:09;6.68;;;2.83;;
37527;SDS011;23372;52.050;4.810;2023-07-29T01:12:24;8.48;;;2.90;;
37527;SDS011;23372;52.050;4.810;2023-07-29T01:15:01;12.27;;;4.93;;
37527;SDS011;23372;52.050;4.810;2023-07-29T01:17:59;9.80;;;3.13;;
37527;SDS011;23372;52.050;4.810;2023-07-29T01:20:29;6.55;;;3.45;;
37527;SDS011;23372;52.050;4.810;2023-07-29T01:22:58;7.85;;;3.47;;
37527;SDS011;23372;52.050;4.810;2023-07-29T01:25:23;8.23;;;3.78;;
37527;SDS011;23372;52.050;4.810;2023-07-29T01:27:50;9.02;;;3.97;;
37527;SDS011;23372;52.050;4.810;2023-07-29T01:30:20;7.13;;;3.70;;
37527;SDS011;23372;52.050;4.810;2023-07-29T01:37:55;9.20;;;3.38;;
37527;SDS011;23372;52.050;4.810;2023-07-29T01:40:27;9.90;;;3.67;;
37527;SDS011;23372;52.050;4.810;2023-07-29T01:42:53;10.68;;;3.58;;
37527;SDS011;23372;52.050;4.810;2023-07-29T01:45:22;11.43;;;2.97;;
37527;SDS011;23372;52.050;4.810;2023-07-29T01:47:49;8.32;;;3.00;;
37527;SDS011;23372;52.050;4.810;2023-07-29T01:50:15;10.95;;;3.88;;
37527;SDS011;23372;52.050;4.810;2023-07-29T01:52:40;7.60;;;3.42;;
37527;SDS011;23372;52.050;4.810;2023-07-29T01:55:06;9.57;;;3.95;;
37527;SDS011;23372;52.050;4.810;2023-07-29T01:57:32;11.73;;;4.10;;
37527;SDS011;23372;52.050;4.810;2023-07-29T01:59:57;8.38;;;4.00;;
37527;SDS011;23372;52.050;4.810;2023-07-29T02:02:23;11.18;;;3.58;;
37527;SDS011;23372;52.050;4.810;2023-07-29T02:04:49;10.15;;;3.60;;
37527;SDS011;23372;52.050;4.810;2023-07-29T02:07:18;7.07;;;3.95;;
37527;SDS011;23372;52.050;4.810;2023-07-29T02:09:44;8.98;;;3.28;;
37527;SDS011;23372;52.050;4.810;2023-07-29T02:12:10;12.85;;;3.53;;
37527;SDS011;23372;52.050;4.810;2023-07-29T02:14:35;8.35;;;3.63;;
37527;SDS011;23372;52.050;4.810;2023-07-29T02:17:01;11.43;;;4.97;;
37527;SDS011;23372;52.050;4.810;2023-07-29T02:19:27;8.65;;;4.15;;
37527;SDS011;23372;52.050;4.810;2023-07-29T02:21:52;11.10;;;3.90;;
37527;SDS011;23372;52.050;4.810;2023-07-29T02:24:18;7.55;;;3.47;;
37527;SDS011;23372;52.050;4.810;2023-07-29T02:26:43;8.43;;;3.63;;
37527;SDS011;23372;52.050;4.810;2023-07-29T02:29:09;8.15;;;3.38;;
37527;SDS011;23372;52.050;4.810;2023-07-29T02:31:34;8.50;;;3.60;;
37527;SDS011;23372;52.050;4.810;2023-07-29T02:34:02;5.28;;;3.50;;
37527;SDS011;23372;52.050;4.810;2023-07-29T02:36:28;9.07;;;3.55;;
37527;SDS011;23372;52.050;4.810;2023-07-29T02:38:53;7.32;;;3.10;;
37527;SDS011;23372;52.050;4.810;2023-07-29T02:41:19;7.10;;;3.10;;
37527;SDS011;23372;52.050;4.810;2023-07-29T02:43:48;10.45;;;2.97;;
37527;SDS011;23372;52.050;4.810;2023-07-29T02:46:14;8.88;;;3.38;;
37527;SDS011;23372;52.050;4.810;2023-07-29T02:48:39;9.10;;;3.00;;
37527;SDS011;23372;52.050;4.810;2023-07-29T02:51:06;6.85;;;2.70;;
37527;SDS011;23372;52.050;4.810;2023-07-29T02:53:31;8.00;;;3.03;;
37527;SDS011;23372;52.050;4.810;2023-07-29T02:55:57;7.88;;;3.22;;
37527;SDS011;23372;52.050;4.810;2023-07-29T02:58:22;5.32;;;2.85;;
37527;SDS011;23372;52.050;4.810;2023-07-29T03:00:48;7.25;;;2.70;;
37527;SDS011;23372;52.050;4.810;2023-07-29T03:03:13;8.52;;;3.17;;
37527;SDS011;23372;52.050;4.810;2023-07-29T03:05:39;4.35;;;3.17;;
37527;SDS011;23372;52.050;4.810;2023-07-29T03:08:05;7.70;;;3.00;;
37527;SDS011;23372;52.050;4.810;2023-07-29T03:10:30;5.40;;;3.15;;
37527;SDS011;23372;52.050;4.810;2023-07-29T03:12:56;3.90;;;2.78;;
37527;SDS011;23372;52.050;4.810;2023-07-29T03:15:25;4.53;;;2.97;;
37527;SDS011;23372;52.050;4.810;2023-07-29T03:17:51;6.70;;;3.15;;
37527;SDS011;23372;52.050;4.810;2023-07-29T03:20:17;5.93;;;2.80;;
37527;SDS011;23372;52.050;4.810;2023-07-29T03:22:43;10.38;;;3.58;;
37527;SDS011;23372;52.050;4.810;2023-07-29T03:25:09;6.43;;;3.08;;
37527;SDS011;23372;52.050;4.810;2023-07-29T03:27:35;4.30;;;2.50;;
37527;SDS011;23372;52.050;4.810;2023-07-29T03:30:04;6.15;;;2.67;;
37527;SDS011;23372;52.050;4.810;2023-07-29T03:32:31;3.80;;;2.28;;
37527;SDS011;23372;52.050;4.810;2023-07-29T03:34:56;5.10;;;2.83;;
37527;SDS011;23372;52.050;4.810;2023-07-29T03:37:22;4.13;;;2.50;;
37527;SDS011;23372;52.050;4.810;2023-07-29T03:39:47;6.13;;;2.67;;
37527;SDS011;23372;52.050;4.810;2023-07-29T03:42:13;4.45;;;2.45;;
37527;SDS011;23372;52.050;4.810;2023-07-29T03:44:39;3.85;;;2.15;;
37527;SDS011;23372;52.050;4.810;2023-07-29T03:47:05;5.03;;;2.90;;
37527;SDS011;23372;52.050;4.810;2023-07-29T03:49:31;6.13;;;3.03;;
37527;SDS011;23372;52.050;4.810;2023-07-29T03:51:56;5.93;;;2.95;;
37527;SDS011;23372;52.050;4.810;2023-07-29T03:54:22;6.68;;;3.20;;
37527;SDS011;23372;52.050;4.810;2023-07-29T03:56:47;6.53;;;2.90;;
37527;SDS011;23372;52.050;4.810;2023-07-29T03:59:13;4.60;;;3.00;;
37527;SDS011;23372;52.050;4.810;2023-07-29T04:01:39;6.20;;;3.00;;
37527;SDS011;23372;52.050;4.810;2023-07-29T04:04:04;5.82;;;2.75;;
37527;SDS011;23372;52.050;4.810;2023-07-29T04:06:30;5.22;;;2.97;;
37527;SDS011;23372;52.050;4.810;2023-07-29T04:08:56;7.18;;;3.00;;
37527;SDS011;23372;52.050;4.810;2023-07-29T04:11:22;6.22;;;2.95;;
37527;SDS011;23372;52.050;4.810;2023-07-29T04:13:48;8.48;;;3.10;;
37527;SDS011;23372;52.050;4.810;2023-07-29T04:16:14;8.20;;;3.00;;
37527;SDS011;23372;52.050;4.810;2023-07-29T04:18:39;5.00;;;2.88;;
37527;SDS011;23372;52.050;4.810;2023-07-29T04:21:05;4.38;;;2.20;;
37527;SDS011;23372;52.050;4.810;2023-07-29T04:23:30;10.27;;;3.15;;
37527;SDS011;23372;52.050;4.810;2023-07-29T04:25:56;7.80;;;3.45;;
37527;SDS011;23372;52.050;4.810;2023-07-29T04:28:21;7.15;;;3.15;;
37527;SDS011;23372;52.050;4.810;2023-07-29T04:30:47;5.25;;;2.53;;
37527;SDS011;23372;52.050;4.810;2023-07-29T04:33:13;7.72;;;3.20;;
37527;SDS011;23372;52.050;4.810;2023-07-29T04:35:38;7.97;;;3.20;;
37527;SDS011;23372;52.050;4.810;2023-07-29T04:38:04;8.57;;;3.05;;
37527;SDS011;23372;52.050;4.810;2023-07-29T04:40:29;5.50;;;2.78;;
37527;SDS011;23372;52.050;4.810;2023-07-29T04:42:59;11.27;;;3.30;;
37527;SDS011;23372;52.050;4.810;2023-07-29T04:45:27;8.32;;;3.10;;
37527;SDS011;23372;52.050;4.810;2023-07-29T04:47:54;9.40;;;3.70;;
37527;SDS011;23372;52.050;4.810;2023-07-29T04:50:20;8.65;;;4.07;;
37527;SDS011;23372;52.050;4.810;2023-07-29T04:52:45;6.72;;;3.88;;
37527;SDS011;23372;52.050;4.810;2023-07-29T04:55:11;9.25;;;4.05;;
37527;SDS011;23372;52.050;4.810;2023-07-29T04:57:37;8.73;;;3.78;;
37527;SDS011;23372;52.050;4.810;2023-07-29T05:00:02;8.93;;;3.58;;
37527;SDS011;23372;52.050;4.810;2023-07-29T05:02:28;7.88;;;4.40;;
37527;SDS011;23372;52.050;4.810;2023-07-29T05:04:54;9.40;;;4.10;;
37527;SDS011;23372;52.050;4.810;2023-07-29T05:07:19;8.07;;;3.80;;
37527;SDS011;23372;52.050;4.810;2023-07-29T05:09:45;6.30;;;3.50;;
37527;SDS011;23372;52.050;4.810;2023-07-29T05:12:11;11.57;;;4.13;;
37527;SDS011;23372;52.050;4.810;2023-07-29T05:14:37;8.23;;;3.88;;
37527;SDS011;23372;52.050;4.810;2023-07-29T05:17:03;8.93;;;4.25;;
37527;SDS011;23372;52.050;4.810;2023-07-29T05:19:28;7.68;;;4.20;;
37527;SDS011;23372;52.050;4.810;2023-07-29T05:21:54;9.90;;;4.45;;
37527;SDS011;23372;52.050;4.810;2023-07-29T05:24:20;12.05;;;4.63;;
37527;SDS011;23372;52.050;4.810;2023-07-29T05:26:46;9.38;;;4.72;;
37527;SDS011;23372;52.050;4.810;2023-07-29T05:29:11;9.30;;;4.07;;
37527;SDS011;23372;52.050;4.810;2023-07-29T05:31:37;7.65;;;4.90;;
37527;SDS011;23372;52.050;4.810;2023-07-29T05:34:02;14.13;;;4.95;;
37527;SDS011;23372;52.050;4.810;2023-07-29T05:36:28;9.70;;;5.22;;
37527;SDS011;23372;52.050;4.810;2023-07-29T05:38:54;11.13;;;4.40;;
37527;SDS011;23372;52.050;4.810;2023-07-29T05:41:20;7.65;;;5.03;;
37527;SDS011;23372;52.050;4.810;2023-07-29T05:43:45;11.13;;;5.32;;
37527;SDS011;23372;52.050;4.810;2023-07-29T05:46:11;11.02;;;5.15;;
37527;SDS011;23372;52.050;4.810;2023-07-29T05:48:37;10.68;;;4.80;;
37527;SDS011;23372;52.050;4.810;2023-07-29T05:51:03;10.07;;;4.95;;
37527;SDS011;23372;52.050;4.810;2023-07-29T05:53:30;15.73;;;5.55;;
37527;SDS011;23372;52.050;4.810;2023-07-29T05:55:56;8.20;;;5.03;;
37527;SDS011;23372;52.050;4.810;2023-07-29T05:58:21;11.50;;;5.63;;
37527;SDS011;23372;52.050;4.810;2023-07-29T06:00:47;9.50;;;4.93;;
37527;SDS011;23372;52.050;4.810;2023-07-29T06:03:12;10.30;;;5.82;;
37527;SDS011;23372;52.050;4.810;2023-07-29T06:05:39;11.63;;;5.45;;
37527;SDS011;23372;52.050;4.810;2023-07-29T06:08:04;15.10;;;5.20;;
37527;SDS011;23372;52.050;4.810;2023-07-29T06:10:30;12.95;;;5.35;;
37527;SDS011;23372;52.050;4.810;2023-07-29T06:12:56;15.68;;;4.85;;
37527;SDS011;23372;52.050;4.810;2023-07-29T06:15:21;8.68;;;5.53;;
37527;SDS011;23372;52.050;4.810;2023-07-29T06:17:48;11.95;;;5.60;;
37527;SDS011;23372;52.050;4.810;2023-07-29T06:20:13;12.65;;;5.45;;
37527;SDS011;23372;52.050;4.810;2023-07-29T06:22:39;10.77;;;6.22;;
37527;SDS011;23372;52.050;4.810;2023-07-29T06:25:06;11.65;;;5.57;;
37527;SDS011;23372;52.050;4.810;2023-07-29T06:27:31;15.30;;;5.55;;
37527;SDS011;23372;52.050;4.810;2023-07-29T06:29:57;10.10;;;5.20;;
37527;SDS011;23372;52.050;4.810;2023-07-29T06:32:22;9.65;;;5.80;;
37527;SDS011;23372;52.050;4.810;2023-07-29T06:34:48;12.55;;;5.47;;
37527;SDS011;23372;52.050;4.810;2023-07-29T06:37:13;8.77;;;5.15;;
37527;SDS011;23372;52.050;4.810;2023-07-29T06:39:39;11.20;;;5.28;;
37527;SDS011;23372;52.050;4.810;2023-07-29T06:42:05;9.80;;;5.05;;
37527;SDS011;23372;52.050;4.810;2023-07-29T06:44:30;10.73;;;5.47;;
37527;SDS011;23372;52.050;4.810;2023-07-29T06:46:57;10.20;;;5.00;;
37527;SDS011;23372;52.050;4.810;2023-07-29T06:49:23;10.32;;;5.38;;
37527;SDS011;23372;52.050;4.810;2023-07-29T06:51:48;15.63;;;5.55;;
37527;SDS011;23372;52.050;4.810;2023-07-29T06:54:15;8.48;;;4.90;;
37527;SDS011;23372;52.050;4.810;2023-07-29T06:56:42;10.43;;;5.10;;
37527;SDS011;23372;52.050;4.810;2023-07-29T06:59:08;11.50;;;5.25;;
37527;SDS011;23372;52.050;4.810;2023-07-29T07:01:34;11.35;;;5.28;;
37527;SDS011;23372;52.050;4.810;2023-07-29T07:03:59;11.05;;;5.18;;
37527;SDS011;23372;52.050;4.810;2023-07-29T07:06:25;9.25;;;4.88;;
37527;SDS011;23372;52.050;4.810;2023-07-29T07:08:51;9.10;;;4.32;;
37527;SDS011;23372;52.050;4.810;2023-07-29T07:11:17;8.70;;;3.97;;
37527;SDS011;23372;52.050;4.810;2023-07-29T07:13:43;9.88;;;3.80;;
37527;SDS011;23372;52.050;4.810;2023-07-29T07:16:09;8.93;;;4.40;;
37527;SDS011;23372;52.050;4.810;2023-07-29T07:18:34;4.50;;;3.25;;
37527;SDS011;23372;52.050;4.810;2023-07-29T07:21:00;6.43;;;3.67;;
37527;SDS011;23372;52.050;4.810;2023-07-29T07:23:25;9.90;;;3.38;;
37527;SDS011;23372;52.050;4.810;2023-07-29T07:25:51;5.53;;;3.13;;
37527;SDS011;23372;52.050;4.810;2023-07-29T07:28:16;5.20;;;3.50;;
37527;SDS011;23372;52.050;4.810;2023-07-29T07:30:42;7.07;;;3.70;;
37527;SDS011;23372;52.050;4.810;2023-07-29T07:33:08;5.07;;;3.53;;
37527;SDS011;23372;52.050;4.810;2023-07-29T07:35:33;6.07;;;3.28;;
37527;SDS011;23372;52.050;4.810;2023-07-29T07:37:59;4.60;;;2.80;;
37527;SDS011;23372;52.050;4.810;2023-07-29T07:40:33;9.38;;;3.10;;
37527;SDS011;23372;52.050;4.810;2023-07-29T07:42:58;5.72;;;2.60;;
37527;SDS011;23372;52.050;4.810;2023-07-29T07:45:24;8.45;;;2.80;;
37527;SDS011;23372;52.050;4.810;2023-07-29T07:47:51;6.53;;;3.00;;
37527;SDS011;23372;52.050;4.810;2023-07-29T07:50:18;5.95;;;3.15;;
37527;SDS011;23372;52.050;4.810;2023-07-29T07:52:43;5.78;;;2.38;;
37527;SDS011;23372;52.050;4.810;2023-07-29T07:55:09;7.63;;;2.40;;
37527;SDS011;23372;52.050;4.810;2023-07-29T07:57:34;6.10;;;1.98;;
37527;SDS011;23372;52.050;4.810;2023-07-29T08:00:00;4.40;;;2.42;;
37527;SDS011;23372;52.050;4.810;2023-07-29T08:02:25;6.40;;;2.35;;
37527;SDS011;23372;52.050;4.810;2023-07-29T08:04:51;4.55;;;2.05;;
37527;SDS011;23372;52.050;4.810;2023-07-29T08:07:17;6.15;;;2.30;;
37527;SDS011;23372;52.050;4.810;2023-07-29T08:09:42;6.00;;;3.65;;
37527;SDS011;23372;52.050;4.810;2023-07-29T08:12:09;5.15;;;2.78;;
37527;SDS011;23372;52.050;4.810;2023-07-29T08:14:34;6.13;;;3.40;;
37527;SDS011;23372;52.050;4.810;2023-07-29T08:17:00;5.88;;;3.00;;
37527;SDS011;23372;52.050;4.810;2023-07-29T08:19:26;5.05;;;3.85;;
37527;SDS011;23372;52.050;4.810;2023-07-29T08:21:52;11.52;;;3.08;;
37527;SDS011;23372;52.050;4.810;2023-07-29T08:24:17;6.60;;;3.58;;
37527;SDS011;23372;52.050;4.810;2023-07-29T08:26:43;6.55;;;2.70;;
37527;SDS011;23372;52.050;4.810;2023-07-29T08:29:08;4.32;;;2.30;;
37527;SDS011;23372;52.050;4.810;2023-07-29T08:31:34;6.55;;;2.60;;
37527;SDS011;23372;52.050;4.810;2023-07-29T08:34:00;9.02;;;2.88;;
37527;SDS011;23372;52.050;4.810;2023-07-29T08:36:26;5.68;;;2.35;;
37527;SDS011;23372;52.050;4.810;2023-07-29T08:38:51;2.25;;;1.88;;
37527;SDS011;23372;52.050;4.810;2023-07-29T08:41:21;7.63;;;1.92;;
37527;SDS011;23372;52.050;4.810;2023-07-29T08:46:31;5.70;;;2.80;;
37527;SDS011;23372;52.050;4.810;2023-07-29T08:48:57;6.32;;;2.90;;
37527;SDS011;23372;52.050;4.810;2023-07-29T08:51:24;4.72;;;2.65;;
37527;SDS011;23372;52.050;4.810;2023-07-29T08:53:51;5.90;;;2.85;;
37527;SDS011;23372;52.050;4.810;2023-07-29T08:56:18;5.68;;;3.10;;
37527;SDS011;23372;52.050;4.810;2023-07-29T08:58:43;7.10;;;3.53;;
37527;SDS011;23372;52.050;4.810;2023-07-29T09:01:09;8.20;;;3.70;;
37527;SDS011;23372;52.050;4.810;2023-07-29T09:03:35;5.78;;;3.42;;
37527;SDS011;23372;52.050;4.810;2023-07-29T09:06:01;7.55;;;3.45;;
37527;SDS011;23372;52.050;4.810;2023-07-29T09:08:27;5.43;;;3.20;;
37527;SDS011;23372;52.050;4.810;2023-07-29T09:10:53;10.88;;;4.63;;
37527;SDS011;23372;52.050;4.810;2023-07-29T09:13:20;11.50;;;4.80;;
37527;SDS011;23372;52.050;4.810;2023-07-29T09:15:46;9.25;;;3.60;;
37527;SDS011;23372;52.050;4.810;2023-07-29T09:18:18;8.50;;;3.53;;
37527;SDS011;23372;52.050;4.810;2023-07-29T09:20:47;8.60;;;3.17;;
37527;SDS011;23372;52.050;4.810;2023-07-29T09:23:14;7.95;;;3.00;;
37527;SDS011;23372;52.050;4.810;2023-07-29T09:25:40;5.13;;;2.78;;
37527;SDS011;23372;52.050;4.810;2023-07-29T09:30:37;6.43;;;3.00;;
37527;SDS011;23372;52.050;4.810;2023-07-29T09:33:03;6.97;;;2.80;;
37527;SDS011;23372;52.050;4.810;2023-07-29T09:35:29;4.63;;;2.58;;
37527;SDS011;23372;52.050;4.810;2023-07-29T09:37:57;5.53;;;2.80;;
37527;SDS011;23372;52.050;4.810;2023-07-29T09:40:22;6.13;;;2.40;;
37527;SDS011;23372;52.050;4.810;2023-07-29T09:42:51;5.55;;;2.65;;
37527;SDS011;23372;52.050;4.810;2023-07-29T09:45:24;6.32;;;3.17;;
37527;SDS011;23372;52.050;4.810;2023-07-29T09:47:52;6.85;;;2.70;;
37527;SDS011;23372;52.050;4.810;2023-07-29T09:50:18;4.97;;;3.35;;
37527;SDS011;23372;52.050;4.810;2023-07-29T09:52:44;6.20;;;3.05;;
37527;SDS011;23372;52.050;4.810;2023-07-29T09:55:11;5.97;;;3.28;;
37527;SDS011;23372;52.050;4.810;2023-07-29T09:57:38;5.13;;;2.97;;
37527;SDS011;23372;52.050;4.810;2023-07-29T10:00:05;5.35;;;3.05;;
37527;SDS011;23372;52.050;4.810;2023-07-29T10:02:36;5.18;;;3.15;;
37527;SDS011;23372;52.050;4.810;2023-07-29T10:05:06;5.55;;;2.78;;
37527;SDS011;23372;52.050;4.810;2023-07-29T10:07:36;4.97;;;2.75;;
37527;SDS011;23372;52.050;4.810;2023-07-29T10:10:03;5.47;;;3.15;;
37527;SDS011;23372;52.050;4.810;2023-07-29T10:12:30;6.22;;;3.30;;
37527;SDS011;23372;52.050;4.810;2023-07-29T10:14:58;7.35;;;3.78;;
37527;SDS011;23372;52.050;4.810;2023-07-29T10:17:25;5.78;;;4.13;;
37527;SDS011;23372;52.050;4.810;2023-07-29T10:19:52;3.95;;;3.55;;
37527;SDS011;23372;52.050;4.810;2023-07-29T10:22:20;4.25;;;3.35;;
37527;SDS011;23372;52.050;4.810;2023-07-29T10:24:49;6.55;;;3.85;;
37527;SDS011;23372;52.050;4.810;2023-07-29T10:27:18;5.80;;;3.28;;
37527;SDS011;23372;52.050;4.810;2023-07-29T10:29:45;5.38;;;2.90;;
37527;SDS011;23372;52.050;4.810;2023-07-29T10:32:11;5.03;;;2.92;;
37527;SDS011;23372;52.050;4.810;2023-07-29T10:34:37;5.22;;;2.40;;
37527;SDS011;23372;52.050;4.810;2023-07-29T10:37:03;3.63;;;2.05;;
37527;SDS011;23372;52.050;4.810;2023-07-29T10:39:39;1.65;;;1.08;;
37527;SDS011;23372;52.050;4.810;2023-07-29T10:42:16;1.52;;;0.75;;
37527;SDS011;23372;52.050;4.810;2023-07-29T10:47:17;1.60;;;0.85;;
37527;SDS011;23372;52.050;4.810;2023-07-29T10:49:49;2.20;;;1.30;;
37527;SDS011;23372;52.050;4.810;2023-07-29T10:52:17;2.42;;;1.00;;
37527;SDS011;23372;52.050;4.810;2023-07-29T10:55:27;3.40;;;0.90;;
37527;SDS011;23372;52.050;4.810;2023-07-29T11:00:50;2.60;;;0.80;;
37527;SDS011;23372;52.050;4.810;2023-07-29T11:03:15;3.58;;;1.02;;
37527;SDS011;23372;52.050;4.810;2023-07-29T11:05:42;1.30;;;0.75;;
37527;SDS011;23372;52.050;4.810;2023-07-29T11:08:16;3.05;;;1.20;;
37527;SDS011;23372;52.050;4.810;2023-07-29T11:11:13;3.50;;;1.00;;
37527;SDS011;23372;52.050;4.810;2023-07-29T11:13:38;2.35;;;1.23;;
37527;SDS011;23372;52.050;4.810;2023-07-29T11:16:04;2.95;;;1.00;;
37527;SDS011;23372;52.050;4.810;2023-07-29T11:18:31;3.08;;;1.38;;
37527;SDS011;23372;52.050;4.810;2023-07-29T11:21:01;2.15;;;1.20;;
37527;SDS011;23372;52.050;4.810;2023-07-29T11:23:29;5.70;;;1.33;;
37527;SDS011;23372;52.050;4.810;2023-07-29T11:25:56;3.25;;;1.60;;
37527;SDS011;23372;52.050;4.810;2023-07-29T11:28:22;6.53;;;2.08;;
37527;SDS011;23372;52.050;4.810;2023-07-29T11:30:47;2.72;;;1.95;;
37527;SDS011;23372;52.050;4.810;2023-07-29T11:33:17;1.67;;;1.58;;
37527;SDS011;23372;52.050;4.810;2023-07-29T11:35:44;2.78;;;1.60;;
37527;SDS011;23372;52.050;4.810;2023-07-29T11:38:14;3.60;;;1.65;;
37527;SDS011;23372;52.050;4.810;2023-07-29T11:40:53;5.43;;;1.80;;
37527;SDS011;23372;52.050;4.810;2023-07-29T11:43:19;3.08;;;1.77;;
37527;SDS011;23372;52.050;4.810;2023-07-29T11:45:45;3.38;;;1.50;;
37527;SDS011;23372;52.050;4.810;2023-07-29T11:48:11;3.45;;;1.38;;
37527;SDS011;23372;52.050;4.810;2023-07-29T11:50:36;2.92;;;1.45;;
37527;SDS011;23372;52.050;4.810;2023-07-29T11:53:02;1.85;;;1.20;;
37527;SDS011;23372;52.050;4.810;2023-07-29T11:55:28;2.10;;;1.30;;
37527;SDS011;23372;52.050;4.810;2023-07-29T11:57:53;2.20;;;1.60;;
37527;SDS011;23372;52.050;4.810;2023-07-29T12:00:19;2.80;;;1.60;;
37527;SDS011;23372;52.050;4.810;2023-07-29T12:02:47;3.10;;;1.35;;
37527;SDS011;23372;52.050;4.810;2023-07-29T12:05:14;3.60;;;2.17;;
37527;SDS011;23372;52.050;4.810;2023-07-29T12:07:41;2.90;;;1.73;;
37527;SDS011;23372;52.050;4.810;2023-07-29T12:10:08;6.55;;;1.92;;
37527;SDS011;23372;52.050;4.810;2023-07-29T12:12:47;1.70;;;1.55;;
37527;SDS011;23372;52.050;4.810;2023-07-29T12:15:22;2.95;;;1.92;;
37527;SDS011;23372;52.050;4.810;2023-07-29T12:17:48;2.40;;;1.80;;
37527;SDS011;23372;52.050;4.810;2023-07-29T12:20:14;3.50;;;2.55;;
37527;SDS011;23372;52.050;4.810;2023-07-29T12:22:39;2.20;;;1.88;;
37527;SDS011;23372;52.050;4.810;2023-07-29T12:25:05;5.53;;;2.13;;
37527;SDS011;23372;52.050;4.810;2023-07-29T12:27:32;2.53;;;2.13;;
37527;SDS011;23372;52.050;4.810;2023-07-29T12:29:57;2.88;;;2.30;;
37527;SDS011;23372;52.050;4.810;2023-07-29T12:32:25;4.63;;;3.17;;
37527;SDS011;23372;52.050;4.810;2023-07-29T12:34:52;4.78;;;3.20;;
37527;SDS011;23372;52.050;4.810;2023-07-29T12:37:18;4.43;;;3.45;;
37527;SDS011;23372;52.050;4.810;2023-07-29T12:39:44;5.88;;;3.28;;
37527;SDS011;23372;52.050;4.810;2023-07-29T12:42:10;6.82;;;4.10;;
37527;SDS011;23372;52.050;4.810;2023-07-29T12:44:36;4.35;;;3.67;;
37527;SDS011;23372;52.050;4.810;2023-07-29T12:47:03;5.45;;;3.60;;
37527;SDS011;23372;52.050;4.810;2023-07-29T12:49:30;6.25;;;4.32;;
37527;SDS011;23372;52.050;4.810;2023-07-29T12:51:56;5.10;;;3.17;;
37527;SDS011;23372;52.050;4.810;2023-07-29T12:54:22;5.63;;;3.45;;
37527;SDS011;23372;52.050;4.810;2023-07-29T12:56:48;6.82;;;3.03;;
37527;SDS011;23372;52.050;4.810;2023-07-29T12:59:14;3.72;;;2.55;;
37527;SDS011;23372;52.050;4.810;2023-07-29T13:01:40;3.15;;;2.22;;
37527;SDS011;23372;52.050;4.810;2023-07-29T13:04:05;4.43;;;3.00;;
37527;SDS011;23372;52.050;4.810;2023-07-29T13:06:31;5.60;;;3.08;;
37527;SDS011;23372;52.050;4.810;2023-07-29T13:08:56;6.68;;;3.40;;
37527;SDS011;23372;52.050;4.810;2023-07-29T13:11:22;5.25;;;3.20;;
37527;SDS011;23372;52.050;4.810;2023-07-29T13:13:47;3.28;;;2.97;;
37527;SDS011;23372;52.050;4.810;2023-07-29T13:16:14;3.70;;;2.92;;
37527;SDS011;23372;52.050;4.810;2023-07-29T13:18:40;3.38;;;2.40;;
37527;SDS011;23372;52.050;4.810;2023-07-29T13:21:06;3.90;;;2.33;;
37527;SDS011;23372;52.050;4.810;2023-07-29T13:23:31;6.40;;;2.33;;
37527;SDS011;23372;52.050;4.810;2023-07-29T13:25:57;5.18;;;2.00;;
37527;SDS011;23372;52.050;4.810;2023-07-29T13:28:23;3.42;;;1.30;;
37527;SDS011;23372;52.050;4.810;2023-07-29T13:30:48;4.20;;;1.70;;
37527;SDS011;23372;52.050;4.810;2023-07-29T13:33:14;7.90;;;1.55;;
37527;SDS011;23372;52.050;4.810;2023-07-29T13:35:40;3.10;;;1.50;;
37527;SDS011;23372;52.050;4.810;2023-07-29T13:38:05;3.45;;;1.50;;
37527;SDS011;23372;52.050;4.810;2023-07-29T13:40:31;7.53;;;2.25;;
37527;SDS011;23372;52.050;4.810;2023-07-29T13:42:57;3.17;;;1.65;;
37527;SDS011;23372;52.050;4.810;2023-07-29T13:45:22;3.53;;;1.75;;
37527;SDS011;23372;52.050;4.810;2023-07-29T13:47:48;4.20;;;1.70;;
37527;SDS011;23372;52.050;4.810;2023-07-29T13:50:15;3.20;;;1.38;;
37527;SDS011;23372;52.050;4.810;2023-07-29T13:52:41;4.90;;;1.63;;
37527;SDS011;23372;52.050;4.810;2023-07-29T13:55:06;2.60;;;1.38;;
37527;SDS011;23372;52.050;4.810;2023-07-29T13:57:32;5.50;;;1.50;;
37527;SDS011;23372;52.050;4.810;2023-07-29T13:59:58;2.30;;;1.20;;
37527;SDS011;23372;52.050;4.810;2023-07-29T14:02:24;3.08;;;1.10;;
37527;SDS011;23372;52.050;4.810;2023-07-29T14:04:51;3.20;;;1.55;;
37527;SDS011;23372;52.050;4.810;2023-07-29T14:07:17;4.45;;;1.52;;
37527;SDS011;23372;52.050;4.810;2023-07-29T14:09:42;2.28;;;1.05;;
37527;SDS011;23372;52.050;4.810;2023-07-29T14:12:08;5.20;;;1.17;;
37527;SDS011;23372;52.050;4.810;2023-07-29T14:14:39;1.40;;;0.85;;
37527;SDS011;23372;52.050;4.810;2023-07-29T14:17:05;2.28;;;0.80;;
37527;SDS011;23372;52.050;4.810;2023-07-29T14:19:31;1.90;;;0.80;;
37527;SDS011;23372;52.050;4.810;2023-07-29T14:21:56;2.40;;;1.30;;
37527;SDS011;23372;52.050;4.810;2023-07-29T14:24:23;3.08;;;1.02;;
37527;SDS011;23372;52.050;4.810;2023-07-29T14:26:48;3.20;;;1.10;;
37527;SDS011;23372;52.050;4.810;2023-07-29T14:29:14;1.70;;;1.13;;
37527;SDS011;23372;52.050;4.810;2023-07-29T14:31:39;3.13;;;1.30;;
37527;SDS011;23372;52.050;4.810;2023-07-29T14:34:05;4.38;;;1.10;;
37527;SDS011;23372;52.050;4.810;2023-07-29T14:36:31;3.40;;;0.95;;
37527;SDS011;23372;52.050;4.810;2023-07-29T14:38:56;2.85;;;1.33;;
37527;SDS011;23372;52.050;4.810;2023-07-29T14:41:22;4.10;;;1.52;;
37527;SDS011;23372;52.050;4.810;2023-07-29T14:43:47;3.30;;;1.20;;
37527;SDS011;23372;52.050;4.810;2023-07-29T14:46:13;4.03;;;1.20;;
37527;SDS011;23372;52.050;4.810;2023-07-29T14:48:38;2.58;;;1.10;;
37527;SDS011;23372;52.050;4.810;2023-07-29T14:51:04;4.53;;;1.30;;
37527;SDS011;23372;52.050;4.810;2023-07-29T14:53:29;5.57;;;1.38;;
37527;SDS011;23372;52.050;4.810;2023-07-29T14:55:55;3.90;;;1.50;;
37527;SDS011;23372;52.050;4.810;2023-07-29T14:58:20;2.38;;;1.45;;
37527;SDS011;23372;52.050;4.810;2023-07-29T15:00:46;2.88;;;1.25;;